Maryland METAR Reports


Distance/Direction noted is from Ellicott City, MD as the crow flies

KCBE - Cumberland - 118 miles WNW
Updated: Thu, 08/28/2014 2:55 AM
Mostly Cloudy
Mostly Cloudy
 Wind from N
Wind: N 7 mph
Temperature: 73°F
Dew Point: 66°F
Humidity: 78%
Barometer: 30.02 inHg
Clouds: Mostly Cloudy
Visibility: 10 miles
Cloud Details: Partly Cloudy 2700 ft
Mostly Cloudy 3200 ft
2014/08/28 06:55 KCBE 280655Z AUTO 01006KT 10SM SCT027 BKN032 23/19 A3002 RMK AO1
KHGR - Hagerstown - 57 miles NW
Updated: Thu, 08/28/2014 2:53 AM
Clear
Clear
 Wind from WNW
Wind: WNW 5 mph
Temperature: 72°F
Dew Point: 66°F
Humidity: 83%
Barometer: 29.95 inHg
Clouds: Clear
2014/08/28 06:53 KHGR 280653Z AUTO 29004KT CLR 22/19 A2995 RMK AO2 SLP144 T02220189 $
 
KFDK - Frederick - 34 miles NW
Updated: Thu, 08/28/2014 2:55 AM
Clear
Clear
 Wind from calm
Wind: Calm
Temperature: 73°F
Dew Point: 72°F
Humidity: 94%
Barometer: 29.94 inHg
Clouds: Clear
Visibility: 10 miles
2014/08/28 06:55 KFDK 280655Z AUTO 00000KT 10SM CLR 23/22 A2994 RMK AO2
KGAI - Gaithersburg - 26 miles SW
Updated: Thu, 08/28/2014 2:55 AM
Clear
Clear
 Wind from NW
Wind: NW 3 mph
Temperature: 72°F
Dew Point: 66°F
Humidity: 83%
Barometer: 29.95 inHg
Clouds: Clear
Visibility: 10 miles
2014/08/28 06:55 KGAI 280655Z AUTO 32003KT 10SM CLR 22/19 A2995 RMK AO1
 
KBWI - BWI Airport - 15 miles SE
Updated: Thu, 08/28/2014 2:54 AM
Partly Cloudy
Partly Cloudy
 Wind from NW
Wind: NW 6 mph
Temperature: 75°F
Dew Point: 70°F
Humidity: 83%
Barometer: 29.87 inHg
Clouds: Partly Cloudy
Visibility: 10 miles
Cloud Details: Few Clouds 5500 ft
Partly Cloudy 25000 ft
2014/08/28 06:54 KBWI 280654Z 32005KT 10SM FEW055 SCT250 24/21 A2987 RMK AO2 SLP114 T02440206
KNAK - Annapolis - 32 miles SSE
Updated: Thu, 08/28/2014 2:54 AM

 Wind from NW
Wind: NW 6 mph
Temperature: 77°F
Dew Point: 68°F
Humidity: 74%
Barometer: 29.86 inHg
Visibility: 10 miles
2014/08/28 06:54 KNAK 280654Z AUTO 31005KT 10SM 25/20 A2986 RMK AO2 SLP114 T02500200 $
 
KESN - Easton - 63 miles SE
Updated: Thu, 08/28/2014 3:07 AM
Clear
Clear
 Wind from calm
Wind: Calm
Temperature: 75°F
Dew Point: 72°F
Humidity: 89%
Barometer: 29.90 inHg
Clouds: Clear
Visibility: 10 miles
2014/08/28 07:07 KESN 280707Z AUTO 00000KT 10SM CLR 24/22 A2990 RMK AO2 T02380215
KSBY - Salisbury - 112 miles SE
Updated: Thu, 08/28/2014 2:54 AM
Mostly Cloudy
Mostly Cloudy
 Wind from W
Wind: W 5 mph
Temperature: 73°F
Dew Point: 70°F
Humidity: 89%
Barometer: 29.86 inHg
Clouds: Mostly Cloudy
Visibility: 10 miles
Cloud Details: Mostly Cloudy 5000 ft
2014/08/28 06:54 KSBY 280654Z AUTO 27004KT 10SM BKN050 23/21 A2986 RMK AO2 SLP112 T02280206